Airfield :
LOGIN :

Register | Disclaimer

   EN    FR    IT 

 










Legend :    VFR   Marginal VFR   IFR   Intensive IFR   Very Intensive IFR
Visi :
Ceiling :
>= 8 km
>= 3000ft
5 to 8 km
1000 to 3000 ft
1500m to 5 km
500 to 1000 ft
800 to 1500m
200 to 500 ft
< 800m
< 200 ft
Symbols :   Thunderstorms  Fog  Heavy snow  Heavy precipitations  Wind > 20 kt
SIGMETs :     Misc.  Thunderstorms  Icing  Turbulence  Mountain Waves  Volcanic Ashes







- Airport Elevation : 778 ft
- IATA code : BRQ


LKTB - Brno-Turany

CURRENT METAR :
  • 171130Z VRB02KT 9999 BKN028 01/M01 Q1018 NOSIG

EXPIRED METARs :
  • 171100Z VRB02KT 9999 SCT025 01/M01 Q1018 NOSIG
  • 171030Z 17003KT 090V220 9999 FEW027 00/M02 Q1018 NOSIG
  • 171000Z VRB02KT CAVOK M00/M02 Q1018 NOSIG
  • 170930Z 22003KT CAVOK M00/M02 Q1018 NOSIG
  • 170900Z 25002KT 9999 FEW026 M01/M02 Q1018 NOSIG

TAF TAF LKTB
Valid from the 17 at 12:00 until the 18 at 18:00 UTC


171100Z 1712/1818 VRB02KT 9999 SCT030
TEMPO 1712/1818 BKN030
PROB30
TEMPO 1714/1809 5000 SN BKN017
BECMG 1816/1818 CAVOK
No reported NOTAMs for that airfield.



MET'MAP, your aeronautical weather chart ! - Copyright ORBIFLY December 2007 - Disclaimer

ORBIFLY MET'MAP TEAM :

Programming & Development : Alexandra Zaïnal
Concept & Development : Baudouin d'Aumeries
Co-Development & Prog : Marc-Olivier Méhu
Technical & hardware support : Manuel Goepfert

Contact : metmap@orbifly.com




SOURCES & CREDITS :

   NOAA